createdAt,value
2018-04-12T00:00:39.921Z,90.32
2018-04-12T00:03:05.995Z,90.48
2018-04-12T00:05:32.016Z,90.76
2018-04-12T00:07:58.062Z,90.62
2018-04-12T00:10:24.075Z,90.41
2018-04-12T00:12:50.133Z,91.09
2018-04-12T00:15:16.111Z,91.79
2018-04-12T00:17:42.157Z,92.17
2018-04-12T00:20:08.168Z,91.98
2018-04-12T00:22:34.172Z,92.15
2018-04-12T00:25:00.199Z,92.00
2018-04-12T00:27:26.204Z,91.73
2018-04-12T00:29:52.200Z,91.70
2018-04-12T00:32:18.266Z,91.62
2018-04-12T00:34:44.253Z,91.95
2018-04-12T00:37:10.236Z,91.79
2018-04-12T00:39:36.432Z,91.99
2018-04-12T00:42:02.413Z,91.60
2018-04-12T00:44:35.433Z,92.22
2018-04-12T00:47:01.516Z,91.75
2018-04-12T00:49:27.649Z,92.51
2018-04-12T00:51:53.632Z,92.19
2018-04-12T00:54:19.628Z,92.71
2018-04-12T00:56:45.671Z,92.76
2018-04-12T00:59:12.479Z,92.62
2018-04-12T01:01:38.508Z,92.71
2018-04-12T01:04:04.557Z,93.05
2018-04-12T01:06:30.605Z,92.57
2018-04-12T01:08:56.604Z,92.81
2018-04-12T01:11:22.609Z,92.51
2018-04-12T01:13:48.661Z,91.86
2018-04-12T01:16:14.744Z,91.62
2018-04-12T01:18:40.923Z,91.61
2018-04-12T01:21:06.924Z,91.44
2018-04-12T01:23:32.901Z,91.37
2018-04-12T01:25:59.045Z,90.94
2018-04-12T01:28:25.165Z,91.11
2018-04-12T01:30:51.172Z,90.92
2018-04-12T01:33:17.173Z,90.70
2018-04-12T01:35:44.104Z,90.86
2018-04-12T01:38:10.139Z,90.83
2018-04-12T01:40:36.183Z,90.96
2018-04-12T01:43:02.241Z,91.09
2018-04-12T01:45:28.269Z,91.02
2018-04-12T01:47:54.278Z,90.94
2018-04-12T01:50:20.317Z,91.06
2018-04-12T01:52:46.376Z,91.07
2018-04-12T01:55:12.449Z,91.09
2018-04-12T01:57:38.485Z,91.18
2018-04-12T02:00:04.495Z,90.99
2018-04-12T02:02:30.505Z,91.06
2018-04-12T02:04:56.509Z,91.21
2018-04-12T02:07:22.509Z,91.12
2018-04-12T02:09:48.494Z,91.37
2018-04-12T02:12:14.490Z,91.22
2018-04-12T02:14:40.503Z,91.50
2018-04-12T02:17:06.481Z,91.61
2018-04-12T02:19:32.498Z,91.44
2018-04-12T02:21:58.494Z,91.25
2018-04-12T02:24:24.688Z,91.55
2018-04-12T02:26:50.718Z,91.54
2018-04-12T02:29:17.045Z,91.54
2018-04-12T02:31:43.734Z,91.61
2018-04-12T02:34:09.745Z,91.75
2018-04-12T02:36:35.768Z,91.75
2018-04-12T02:39:01.806Z,91.61
2018-04-12T02:41:27.844Z,91.74
2018-04-12T02:43:53.871Z,91.71
2018-04-12T02:46:19.968Z,91.67
2018-04-12T02:48:45.980Z,91.62
2018-04-12T02:51:12.001Z,92.00
2018-04-12T02:53:38.072Z,91.96
2018-04-12T02:56:04.493Z,91.99
2018-04-12T02:58:30.529Z,92.04
2018-04-12T03:00:56.626Z,92.18
2018-04-12T03:03:22.660Z,92.26
2018-04-12T03:05:48.695Z,92.20
2018-04-12T03:08:14.710Z,92.30
2018-04-12T03:10:40.751Z,92.35
2018-04-12T03:13:06.772Z,92.43
2018-04-12T03:15:33.410Z,92.47
2018-04-12T03:17:59.524Z,92.49
2018-04-12T03:20:25.525Z,92.69
2018-04-12T03:22:51.598Z,92.81
2018-04-12T03:25:17.667Z,92.59
2018-04-12T03:27:43.710Z,92.64
2018-04-12T03:30:09.734Z,92.62
2018-04-12T03:32:35.784Z,92.70
2018-04-12T03:35:01.931Z,92.83
2018-04-12T03:37:27.954Z,92.87
2018-04-12T03:39:54.030Z,92.76
2018-04-12T03:42:20.051Z,93.02
2018-04-12T03:44:46.057Z,92.89
2018-04-12T03:47:12.063Z,92.77
2018-04-12T03:49:38.112Z,93.05
2018-04-12T03:52:04.129Z,92.96
2018-04-12T03:54:30.131Z,92.99
2018-04-12T03:56:56.148Z,93.10
2018-04-12T03:59:22.201Z,93.10
2018-04-12T04:01:48.277Z,93.21
2018-04-12T04:04:14.264Z,93.28
2018-04-12T04:06:40.309Z,93.07
2018-04-12T04:09:06.336Z,93.28
2018-04-12T04:11:32.320Z,93.24
2018-04-12T04:13:58.350Z,93.42
2018-04-12T04:16:36.393Z,93.25
2018-04-12T04:19:14.583Z,93.39
2018-04-12T04:21:40.647Z,93.50
2018-04-12T04:24:06.693Z,93.51
2018-04-12T04:26:32.717Z,93.57
2018-04-12T04:28:58.969Z,93.43
2018-04-12T04:31:25.088Z,93.29
2018-04-12T04:33:51.215Z,93.56
2018-04-12T04:36:17.225Z,93.46
2018-04-12T04:38:43.434Z,93.38
2018-04-12T04:41:09.500Z,93.33
2018-04-12T04:43:35.558Z,93.71
2018-04-12T04:46:01.675Z,93.58
2018-04-12T04:48:27.731Z,93.54
2018-04-12T04:50:53.849Z,93.87
2018-04-12T04:53:20.644Z,93.77
2018-04-12T04:55:46.680Z,93.97
2018-04-12T04:58:12.672Z,93.75
2018-04-12T05:00:38.739Z,93.79
2018-04-12T05:03:04.992Z,93.53
2018-04-12T05:05:31.131Z,93.62
2018-04-12T05:07:57.222Z,93.42
2018-04-12T05:10:23.259Z,93.51
2018-04-12T05:12:49.372Z,93.80
2018-04-12T05:15:15.518Z,93.85
2018-04-12T05:17:41.656Z,93.77
2018-04-12T05:20:07.699Z,93.79
2018-04-12T05:22:33.749Z,93.88
2018-04-12T05:24:59.970Z,93.79
2018-04-12T05:27:25.967Z,93.73
2018-04-12T05:29:51.974Z,93.51
2018-04-12T05:32:17.992Z,93.22
2018-04-12T05:34:44.038Z,93.33
2018-04-12T05:37:10.559Z,93.30
2018-04-12T05:39:37.097Z,93.12
2018-04-12T05:42:03.484Z,92.70
2018-04-12T05:44:29.525Z,92.79
2018-04-12T05:46:55.552Z,92.67
2018-04-12T05:49:21.646Z,92.44
2018-04-12T05:51:47.703Z,92.41
2018-04-12T05:54:13.700Z,92.09
2018-04-12T05:56:39.829Z,92.20
2018-04-12T05:59:05.938Z,92.01
2018-04-12T06:01:31.963Z,91.68
2018-04-12T06:03:58.028Z,91.51
2018-04-12T06:06:24.141Z,90.97
2018-04-12T06:08:50.166Z,91.04
2018-04-12T06:11:16.216Z,90.77
2018-04-12T06:13:42.232Z,90.89
2018-04-12T06:16:08.315Z,90.67
2018-04-12T06:18:34.321Z,90.39
2018-04-12T06:21:00.325Z,90.48
2018-04-12T06:23:26.420Z,90.50
2018-04-12T06:25:52.792Z,90.18
2018-04-12T06:28:18.859Z,90.21
2018-04-12T06:30:44.870Z,89.63
2018-04-12T06:33:10.974Z,90.08
2018-04-12T06:35:36.967Z,89.59
2018-04-12T06:38:02.986Z,89.56
2018-04-12T06:40:29.166Z,89.39
2018-04-12T06:42:55.181Z,89.63
2018-04-12T06:45:21.307Z,89.26
2018-04-12T06:47:47.359Z,89.26
2018-04-12T06:50:13.490Z,89.17
2018-04-12T06:52:46.961Z,88.94
2018-04-12T06:55:13.729Z,88.72
2018-04-12T06:57:39.803Z,89.00
2018-04-12T07:00:05.828Z,88.74
2018-04-12T07:02:31.829Z,89.12
2018-04-12T07:04:58.628Z,88.96
2018-04-12T07:07:24.709Z,88.86
2018-04-12T07:09:51.432Z,88.92
2018-04-12T07:12:17.477Z,88.94
2018-04-12T07:14:43.494Z,88.61
2018-04-12T07:17:09.564Z,88.86
2018-04-12T07:19:36.271Z,88.22
2018-04-12T07:22:02.299Z,88.11
2018-04-12T07:24:28.333Z,88.08
2018-04-12T07:26:54.509Z,88.35
2018-04-12T07:29:20.809Z,87.78
2018-04-12T07:31:47.545Z,88.28
2018-04-12T07:34:13.673Z,88.06
2018-04-12T07:36:39.807Z,87.89
2018-04-12T07:39:06.516Z,88.02
2018-04-12T07:41:32.510Z,87.40
2018-04-12T07:43:58.633Z,87.93
2018-04-12T07:46:24.622Z,88.02
2018-04-12T07:48:50.668Z,87.41
2018-04-12T07:51:16.664Z,88.16
2018-04-12T07:53:42.712Z,87.94
2018-04-12T07:56:08.776Z,87.36
2018-04-12T07:58:34.807Z,87.83
2018-04-12T08:01:00.816Z,87.72
2018-04-12T08:03:26.910Z,87.79
2018-04-12T08:05:53.458Z,88.11
2018-04-12T08:08:19.519Z,87.99
2018-04-12T08:10:45.630Z,88.19
2018-04-12T08:13:11.645Z,87.99
2018-04-12T08:15:37.710Z,87.84
2018-04-12T08:18:03.736Z,87.97
2018-04-12T08:20:29.830Z,87.70
2018-04-12T08:22:55.927Z,87.54
2018-04-12T08:25:21.978Z,87.71
2018-04-12T08:27:48.251Z,87.59
2018-04-12T08:30:14.231Z,87.51
2018-04-12T08:32:40.584Z,87.67
2018-04-12T08:35:06.664Z,87.30
2018-04-12T08:37:32.725Z,87.84
2018-04-12T08:39:58.781Z,87.65
2018-04-12T08:42:24.774Z,87.10
2018-04-12T08:44:50.831Z,86.63
2018-04-12T08:47:16.872Z,86.76
2018-04-12T08:49:42.945Z,86.47
2018-04-12T08:52:08.982Z,85.94
2018-04-12T08:54:35.234Z,85.52
2018-04-12T08:57:01.406Z,84.91
2018-04-12T08:59:27.444Z,85.35
2018-04-12T09:01:53.484Z,84.96
2018-04-12T09:04:19.585Z,84.96
2018-04-12T09:06:45.736Z,85.35
2018-04-12T09:09:11.761Z,84.85
2018-04-12T09:11:37.796Z,84.46
2018-04-12T09:14:03.903Z,84.22
2018-04-12T09:16:30.118Z,84.01
2018-04-12T09:18:56.146Z,84.30
2018-04-12T09:21:22.193Z,84.46
2018-04-12T09:23:48.232Z,84.39
2018-04-12T09:26:14.277Z,84.38
2018-04-12T09:28:40.305Z,84.40
2018-04-12T09:31:06.399Z,83.59
2018-04-12T09:33:32.495Z,83.36
2018-04-12T09:35:58.548Z,83.50
2018-04-12T09:38:24.652Z,82.39
2018-04-12T09:40:50.737Z,82.43
2018-04-12T09:43:16.772Z,82.04
2018-04-12T09:45:42.856Z,82.21
2018-04-12T09:48:08.926Z,82.39
2018-04-12T09:50:35.072Z,82.22
2018-04-12T09:53:01.213Z,82.29
2018-04-12T09:55:27.260Z,82.65
2018-04-12T09:57:53.368Z,83.05
2018-04-12T10:00:25.490Z,82.50
2018-04-12T10:02:55.592Z,82.18
2018-04-12T10:05:27.622Z,82.40
2018-04-12T10:07:54.208Z,82.86
2018-04-12T10:10:20.236Z,82.83
2018-04-12T10:12:46.261Z,83.27
2018-04-12T10:15:12.270Z,83.31
2018-04-12T10:17:38.360Z,83.12
2018-04-12T10:20:04.341Z,83.44
2018-04-12T10:22:30.401Z,83.27
2018-04-12T10:24:56.429Z,83.16
2018-04-12T10:27:22.458Z,82.72
2018-04-12T10:29:48.602Z,82.65
2018-04-12T10:32:14.639Z,82.50
2018-04-12T10:34:40.671Z,83.23
2018-04-12T10:37:06.873Z,82.81
2018-04-12T10:39:32.903Z,82.57
2018-04-12T10:41:58.941Z,82.41
2018-04-12T10:44:25.038Z,82.34
2018-04-12T10:46:51.108Z,82.90
2018-04-12T10:49:17.140Z,82.53
2018-04-12T10:51:43.354Z,81.93
2018-04-12T10:54:09.459Z,81.25
2018-04-12T10:56:35.603Z,81.16
2018-04-12T10:59:01.651Z,81.75
2018-04-12T11:01:27.747Z,81.72
2018-04-12T11:03:53.856Z,81.58
2018-04-12T11:06:20.556Z,80.56
2018-04-12T11:08:46.721Z,80.90
2018-04-12T11:11:12.745Z,80.94
2018-04-12T11:13:38.856Z,80.95
2018-04-12T11:16:04.926Z,80.67
2018-04-12T11:18:31.070Z,80.31
2018-04-12T11:20:57.059Z,79.79
2018-04-12T11:23:23.196Z,79.43
2018-04-12T11:25:49.279Z,80.41
2018-04-12T11:28:15.303Z,80.06
2018-04-12T11:30:41.311Z,80.01
2018-04-12T11:33:07.675Z,80.61
2018-04-12T11:35:33.797Z,80.22
2018-04-12T11:37:59.851Z,79.55
2018-04-12T11:40:26.007Z,78.67
2018-04-12T11:42:52.146Z,78.44
2018-04-12T11:45:18.232Z,77.83
2018-04-12T11:47:44.340Z,78.32
2018-04-12T11:50:10.405Z,78.47
2018-04-12T11:52:36.582Z,77.98
2018-04-12T11:55:02.728Z,78.64
2018-04-12T11:57:28.726Z,79.13
2018-04-12T11:59:54.733Z,78.92
2018-04-12T12:02:20.772Z,78.71
2018-04-12T12:04:46.794Z,79.08
2018-04-12T12:07:12.872Z,79.47
2018-04-12T12:09:38.909Z,79.40
2018-04-12T12:12:04.915Z,79.49
2018-04-12T12:14:30.998Z,79.76
2018-04-12T12:16:57.065Z,79.60
2018-04-12T12:19:23.158Z,79.62
2018-04-12T12:21:49.353Z,80.34
2018-04-12T12:24:15.445Z,80.08
2018-04-12T12:26:41.664Z,80.43
2018-04-12T12:29:07.673Z,80.44
2018-04-12T12:31:33.720Z,80.69
2018-04-12T12:33:59.877Z,80.46
2018-04-12T12:36:26.070Z,80.81
2018-04-12T12:38:52.138Z,80.41
2018-04-12T12:41:18.153Z,80.77
2018-04-12T12:43:44.316Z,81.01
2018-04-12T12:46:10.346Z,81.35
2018-04-12T12:48:36.362Z,81.08
2018-04-12T12:51:02.392Z,81.13
2018-04-12T12:53:28.414Z,81.50
2018-04-12T12:55:54.491Z,81.51
2018-04-12T12:58:20.506Z,82.03
2018-04-12T13:00:46.553Z,82.20
2018-04-12T13:03:12.825Z,81.63
2018-04-12T13:05:38.948Z,80.99
2018-04-12T13:08:05.010Z,81.69
2018-04-12T13:10:31.113Z,81.43
2018-04-12T13:12:57.206Z,82.18
2018-04-12T13:15:23.941Z,82.17
2018-04-12T13:17:50.065Z,82.77
2018-04-12T13:20:16.117Z,82.91
2018-04-12T13:22:42.153Z,84.14
2018-04-12T13:25:08.211Z,83.84
2018-04-12T13:27:34.281Z,83.68
2018-04-12T13:30:00.316Z,84.21
2018-04-12T13:32:26.409Z,84.34
2018-04-12T13:34:52.484Z,84.96
2018-04-12T13:37:18.750Z,85.80
2018-04-12T13:39:44.818Z,86.36
2018-04-12T13:42:10.905Z,86.24
2018-04-12T13:44:36.953Z,86.63
2018-04-12T13:47:02.997Z,86.46
2018-04-12T13:49:29.022Z,87.29
2018-04-12T13:51:55.108Z,87.09
2018-04-12T13:54:21.196Z,87.56
2018-04-12T13:56:47.275Z,87.32
2018-04-12T13:59:14.305Z,86.88
2018-04-12T14:01:40.438Z,87.66
2018-04-12T14:04:06.449Z,87.79
2018-04-12T14:06:32.588Z,87.67
2018-04-12T14:08:58.600Z,88.59
2018-04-12T14:11:24.680Z,88.30
2018-04-12T14:13:50.733Z,88.64
2018-04-12T14:16:16.827Z,88.69
2018-04-12T14:18:42.848Z,88.52
2018-04-12T14:21:08.894Z,88.05
2018-04-12T14:23:35.133Z,88.85
2018-04-12T14:26:01.361Z,88.50
2018-04-12T14:28:27.392Z,88.57
2018-04-12T14:30:53.494Z,88.62
2018-04-12T14:33:19.538Z,88.60
2018-04-12T14:35:45.753Z,88.66
2018-04-12T14:38:11.968Z,88.76
2018-04-12T14:40:37.981Z,88.17
2018-04-12T14:43:04.025Z,88.62
2018-04-12T14:45:30.081Z,88.04
2018-04-12T14:47:56.130Z,88.53
2018-04-12T14:50:22.199Z,88.28
2018-04-12T14:52:48.241Z,88.26
2018-04-12T14:55:14.300Z,87.60
2018-04-12T14:57:40.418Z,87.83
2018-04-12T15:00:06.438Z,86.91
2018-04-12T15:02:32.675Z,86.12
2018-04-12T15:04:59.463Z,86.34
2018-04-12T15:07:25.593Z,86.32
2018-04-12T15:09:51.722Z,85.54
2018-04-12T15:12:17.760Z,85.16
2018-04-12T15:14:43.808Z,85.27
2018-04-12T15:17:10.020Z,85.20
2018-04-12T15:19:36.269Z,84.96
2018-04-12T15:22:02.346Z,85.06
2018-04-12T15:24:28.381Z,84.27
2018-04-12T15:26:54.470Z,83.37
2018-04-12T15:29:20.606Z,84.71
2018-04-12T15:31:46.657Z,84.40
2018-04-12T15:34:12.753Z,85.00
2018-04-12T15:36:38.806Z,83.89
2018-04-12T15:39:05.925Z,84.30
2018-04-12T15:41:32.158Z,84.25
2018-04-12T15:43:58.202Z,84.57
2018-04-12T15:46:24.288Z,84.55
2018-04-12T15:48:50.386Z,84.33
2018-04-12T15:51:23.366Z,85.08
2018-04-12T15:53:49.372Z,84.76
2018-04-12T15:56:15.540Z,85.57
2018-04-12T15:58:41.758Z,85.64
2018-04-12T16:01:08.336Z,85.21
2018-04-12T16:03:34.430Z,84.88
2018-04-12T16:06:00.509Z,84.54
2018-04-12T16:08:26.560Z,84.68
2018-04-12T16:10:52.595Z,85.48
2018-04-12T16:13:18.631Z,85.65
2018-04-12T16:15:44.741Z,85.72
2018-04-12T16:18:10.795Z,85.25
2018-04-12T16:20:36.862Z,85.11
2018-04-12T16:23:02.940Z,85.25
2018-04-12T16:25:29.017Z,84.78
2018-04-12T16:27:55.165Z,84.96
2018-04-12T16:30:21.216Z,85.55
2018-04-12T16:32:47.271Z,85.37
2018-04-12T16:35:13.299Z,85.21
2018-04-12T16:37:39.377Z,85.05
2018-04-12T16:40:05.394Z,85.17
2018-04-12T16:42:31.484Z,85.21
2018-04-12T16:44:57.583Z,84.90
2018-04-12T16:47:23.669Z,84.65
2018-04-12T16:49:49.841Z,84.43
2018-04-12T16:52:15.944Z,84.68
2018-04-12T16:54:41.995Z,84.62
2018-04-12T16:57:08.120Z,84.88
2018-04-12T16:59:34.247Z,85.03
2018-04-12T17:02:00.267Z,85.55
2018-04-12T17:04:26.294Z,85.47
2018-04-12T17:06:52.453Z,85.22
2018-04-12T17:09:18.467Z,84.58
2018-04-12T17:11:44.508Z,84.81
2018-04-12T17:14:10.574Z,84.42
2018-04-12T17:16:36.706Z,83.91
2018-04-12T17:19:02.712Z,84.33
2018-04-12T17:21:28.772Z,84.54
2018-04-12T17:23:54.812Z,84.36
2018-04-12T17:26:20.897Z,84.47
2018-04-12T17:28:46.932Z,84.50
2018-04-12T17:31:12.984Z,84.39
2018-04-12T17:33:39.225Z,84.77
2018-04-12T17:36:05.276Z,84.89
2018-04-12T17:38:31.310Z,84.73
2018-04-12T17:40:57.437Z,85.27
2018-04-12T17:43:23.573Z,84.68
2018-04-12T17:45:49.737Z,85.39
2018-04-12T17:48:15.784Z,85.92
2018-04-12T17:50:41.875Z,86.28
2018-04-12T17:53:15.600Z,86.60
2018-04-12T17:55:41.744Z,86.85
2018-04-12T17:58:07.769Z,86.97
2018-04-12T18:00:33.898Z,86.71
2018-04-12T18:03:00.945Z,87.36
2018-04-12T18:05:27.034Z,87.24
2018-04-12T18:07:53.221Z,87.30
2018-04-12T18:10:19.288Z,87.54
2018-04-12T18:12:45.373Z,87.52
2018-04-12T18:15:11.546Z,87.75
2018-04-12T18:17:37.613Z,88.10
2018-04-12T18:20:03.711Z,88.33
2018-04-12T18:22:29.722Z,88.73
2018-04-12T18:24:55.835Z,88.46
2018-04-12T18:27:22.028Z,88.93
2018-04-12T18:29:48.201Z,89.17
2018-04-12T18:32:14.275Z,89.42
2018-04-12T18:34:40.332Z,89.45
2018-04-12T18:37:06.419Z,89.32
2018-04-12T18:39:32.629Z,89.43
2018-04-12T18:41:58.715Z,89.50
2018-04-12T18:44:24.916Z,89.88
2018-04-12T18:46:50.948Z,89.81
2018-04-12T18:49:17.020Z,90.10
2018-04-12T18:51:43.073Z,90.06
2018-04-12T18:54:09.203Z,90.17
2018-04-12T18:56:35.393Z,90.31
2018-04-12T18:59:01.497Z,89.84
2018-04-12T19:01:27.780Z,90.15
2018-04-12T19:03:53.864Z,89.99
2018-04-12T19:06:20.038Z,90.34
2018-04-12T19:08:46.225Z,89.97
2018-04-12T19:11:12.349Z,89.99
2018-04-12T19:13:38.397Z,90.31
2018-04-12T19:16:04.483Z,89.88
2018-04-12T19:18:30.575Z,89.69
2018-04-12T19:20:56.575Z,90.29
2018-04-12T19:23:22.611Z,90.85
2018-04-12T19:25:48.703Z,90.19
2018-04-12T19:28:14.772Z,90.69
2018-04-12T19:30:40.805Z,90.16
2018-04-12T19:33:09.511Z,90.47
2018-04-12T19:35:35.612Z,90.90
2018-04-12T19:38:01.693Z,91.02
2018-04-12T19:40:27.936Z,90.74
2018-04-12T19:42:54.088Z,90.62
2018-04-12T19:45:20.211Z,90.81
2018-04-12T19:47:46.269Z,90.68
2018-04-12T19:50:12.364Z,90.71
2018-04-12T19:52:38.571Z,90.66
2018-04-12T19:55:04.723Z,90.88
2018-04-12T19:57:30.774Z,90.79
2018-04-12T19:59:56.823Z,90.96
2018-04-12T20:02:22.904Z,90.75
2018-04-12T20:04:48.989Z,90.40
2018-04-12T20:07:15.077Z,90.65
2018-04-12T20:09:41.191Z,90.37
2018-04-12T20:12:07.225Z,90.49
2018-04-12T20:14:33.330Z,90.50
2018-04-12T20:16:59.373Z,90.57
2018-04-12T20:19:26.230Z,90.66
2018-04-12T20:21:52.311Z,90.69
2018-04-12T20:24:18.395Z,90.95
2018-04-12T20:26:44.494Z,90.65
2018-04-12T20:29:10.572Z,90.65
2018-04-12T20:31:36.681Z,90.65
2018-04-12T20:34:02.804Z,90.55
2018-04-12T20:36:28.896Z,90.76
2018-04-12T20:38:55.002Z,90.91
2018-04-12T20:41:21.104Z,90.80
2018-04-12T20:43:47.279Z,90.81
2018-04-12T20:46:13.427Z,90.80
2018-04-12T20:48:39.428Z,90.86
2018-04-12T20:51:05.547Z,90.89
2018-04-12T20:53:31.677Z,91.00
2018-04-12T20:55:57.869Z,91.16
2018-04-12T20:58:23.996Z,91.12
2018-04-12T21:00:50.068Z,91.40
2018-04-12T21:03:16.154Z,91.37
2018-04-12T21:05:42.283Z,92.59
2018-04-12T21:08:08.302Z,91.85
2018-04-12T21:10:34.313Z,91.45
2018-04-12T21:13:00.407Z,91.53
2018-04-12T21:15:26.885Z,91.30
2018-04-12T21:17:52.980Z,91.55
2018-04-12T21:20:19.009Z,91.95
2018-04-12T21:22:45.075Z,91.60
2018-04-12T21:25:11.146Z,91.61
2018-04-12T21:27:37.230Z,91.77
2018-04-12T21:30:03.293Z,91.99
2018-04-12T21:32:30.156Z,91.86
2018-04-12T21:34:56.203Z,91.85
2018-04-12T21:37:22.377Z,91.84
2018-04-12T21:39:48.376Z,91.87
2018-04-12T21:42:14.393Z,92.50
2018-04-12T21:44:40.496Z,92.08
2018-04-12T21:47:06.544Z,92.16
2018-04-12T21:49:32.652Z,92.01
2018-04-12T21:51:58.661Z,92.01
2018-04-12T21:54:24.705Z,92.07
2018-04-12T21:56:50.954Z,92.11
2018-04-12T21:59:17.026Z,92.17
2018-04-12T22:01:43.112Z,92.25
2018-04-12T22:04:09.156Z,92.18
2018-04-12T22:06:35.181Z,92.30
2018-04-12T22:09:01.224Z,92.34
2018-04-12T22:11:27.607Z,92.34
2018-04-12T22:13:53.652Z,92.47
2018-04-12T22:16:19.946Z,92.60
2018-04-12T22:18:46.029Z,92.60
2018-04-12T22:21:12.071Z,92.72
2018-04-12T22:23:38.121Z,92.59
2018-04-12T22:26:04.812Z,92.76
2018-04-12T22:28:31.147Z,92.64
2018-04-12T22:30:57.176Z,92.63
2018-04-12T22:33:23.195Z,92.88
2018-04-12T22:35:49.314Z,92.87
2018-04-12T22:38:15.401Z,92.80
2018-04-12T22:40:41.436Z,93.30
2018-04-12T22:43:07.552Z,93.27
2018-04-12T22:45:33.612Z,92.93
2018-04-12T22:47:59.634Z,93.01
2018-04-12T22:50:25.675Z,93.03
2018-04-12T22:52:51.702Z,93.09
2018-04-12T22:55:17.930Z,93.19
2018-04-12T22:57:43.968Z,93.07
2018-04-12T23:00:10.144Z,93.14
2018-04-12T23:02:36.175Z,93.26
2018-04-12T23:05:02.209Z,93.40
2018-04-12T23:07:28.397Z,93.66
2018-04-12T23:09:54.427Z,93.67
2018-04-12T23:12:20.473Z,93.44
2018-04-12T23:14:46.504Z,93.77
2018-04-12T23:17:12.533Z,93.49
2018-04-12T23:19:38.530Z,93.62
2018-04-12T23:22:04.571Z,93.61
2018-04-12T23:24:30.557Z,93.60
2018-04-12T23:26:56.668Z,93.91
2018-04-12T23:29:22.654Z,93.81
2018-04-12T23:31:48.682Z,94.36
2018-04-12T23:34:14.776Z,93.75
2018-04-12T23:36:40.875Z,94.49
2018-04-12T23:39:06.860Z,93.81
2018-04-12T23:41:32.874Z,93.83
2018-04-12T23:43:58.915Z,94.00
2018-04-12T23:46:25.021Z,94.15
2018-04-12T23:48:51.058Z,94.18
2018-04-12T23:51:17.075Z,94.30
2018-04-12T23:53:43.979Z,94.04
2018-04-12T23:56:10.107Z,94.08
2018-04-12T23:58:36.216Z,94.20
